sensor_id;sensor_type;location;lat;lon;timestamp;temperature;humidity
73955;DHT22;62306;52.516;13.290;2023-07-16T00:01:26;24.60;93.90
73955;DHT22;62306;52.516;13.290;2023-07-16T00:03:53;24.60;94.10
73955;DHT22;62306;52.516;13.290;2023-07-16T00:06:21;24.60;94.10
73955;DHT22;62306;52.516;13.290;2023-07-16T00:08:48;24.40;94.60
73955;DHT22;62306;52.516;13.290;2023-07-16T00:11:15;24.40;94.90
73955;DHT22;62306;52.516;13.290;2023-07-16T00:13:41;24.40;94.90
73955;DHT22;62306;52.516;13.290;2023-07-16T00:16:12;24.40;95.00
73955;DHT22;62306;52.516;13.290;2023-07-16T00:18:40;24.40;95.00
73955;DHT22;62306;52.516;13.290;2023-07-16T00:21:07;24.40;94.80
73955;DHT22;62306;52.516;13.290;2023-07-16T00:23:36;24.30;95.00
73955;DHT22;62306;52.516;13.290;2023-07-16T00:26:02;24.20;95.20
73955;DHT22;62306;52.516;13.290;2023-07-16T00:28:29;24.20;95.50
73955;DHT22;62306;52.516;13.290;2023-07-16T00:30:56;24.20;95.40
73955;DHT22;62306;52.516;13.290;2023-07-16T00:33:24;24.30;95.20
73955;DHT22;62306;52.516;13.290;2023-07-16T00:35:51;24.30;95.40
73955;DHT22;62306;52.516;13.290;2023-07-16T00:38:18;24.40;95.50
73955;DHT22;62306;52.516;13.290;2023-07-16T00:40:46;24.40;95.70
73955;DHT22;62306;52.516;13.290;2023-07-16T00:43:13;24.40;95.80
73955;DHT22;62306;52.516;13.290;2023-07-16T00:45:41;24.40;95.80
73955;DHT22;62306;52.516;13.290;2023-07-16T00:48:08;24.40;95.70
73955;DHT22;62306;52.516;13.290;2023-07-16T00:50:36;24.40;95.90
73955;DHT22;62306;52.516;13.290;2023-07-16T00:53:05;24.40;95.90
73955;DHT22;62306;52.516;13.290;2023-07-16T00:55:32;24.30;96.10
73955;DHT22;62306;52.516;13.290;2023-07-16T00:58:03;24.30;96.40
73955;DHT22;62306;52.516;13.290;2023-07-16T01:00:31;24.20;96.80
73955;DHT22;62306;52.516;13.290;2023-07-16T01:02:58;24.20;96.90
73955;DHT22;62306;52.516;13.290;2023-07-16T01:05:27;24.20;97.00
73955;DHT22;62306;52.516;13.290;2023-07-16T01:08:02;24.20;97.00
73955;DHT22;62306;52.516;13.290;2023-07-16T01:10:31;24.20;97.00
73955;DHT22;62306;52.516;13.290;2023-07-16T01:12:58;24.20;97.00
73955;DHT22;62306;52.516;13.290;2023-07-16T01:15:27;24.20;96.90
73955;DHT22;62306;52.516;13.290;2023-07-16T01:17:54;24.20;96.90
73955;DHT22;62306;52.516;13.290;2023-07-16T01:20:21;24.20;96.60
73955;DHT22;62306;52.516;13.290;2023-07-16T01:23:15;24.20;96.40
73955;DHT22;62306;52.516;13.290;2023-07-16T01:26:10;24.20;96.30
73955;DHT22;62306;52.516;13.290;2023-07-16T01:29:16;24.10;96.90
73955;DHT22;62306;52.516;13.290;2023-07-16T01:31:46;24.00;97.70
73955;DHT22;62306;52.516;13.290;2023-07-16T01:34:16;24.00;98.40
73955;DHT22;62306;52.516;13.290;2023-07-16T01:36:44;23.90;98.20
73955;DHT22;62306;52.516;13.290;2023-07-16T01:39:12;23.80;98.80
73955;DHT22;62306;52.516;13.290;2023-07-16T01:41:39;23.70;98.90
73955;DHT22;62306;52.516;13.290;2023-07-16T01:44:06;23.70;99.00
73955;DHT22;62306;52.516;13.290;2023-07-16T01:46:34;23.70;99.10
73955;DHT22;62306;52.516;13.290;2023-07-16T01:49:01;23.60;99.10
73955;DHT22;62306;52.516;13.290;2023-07-16T01:51:28;23.60;99.20
73955;DHT22;62306;52.516;13.290;2023-07-16T01:53:55;23.60;99.20
73955;DHT22;62306;52.516;13.290;2023-07-16T01:56:22;23.60;99.20
73955;DHT22;62306;52.516;13.290;2023-07-16T01:58:49;23.60;99.10
73955;DHT22;62306;52.516;13.290;2023-07-16T02:01:16;23.10;98.80
73955;DHT22;62306;52.516;13.290;2023-07-16T02:03:44;23.70;99.10
73955;DHT22;62306;52.516;13.290;2023-07-16T02:06:11;23.70;99.10
73955;DHT22;62306;52.516;13.290;2023-07-16T02:08:39;23.70;99.00
73955;DHT22;62306;52.516;13.290;2023-07-16T02:11:06;23.60;99.30
73955;DHT22;62306;52.516;13.290;2023-07-16T02:13:33;23.60;99.30
73955;DHT22;62306;52.516;13.290;2023-07-16T02:15:59;23.60;99.20
73955;DHT22;62306;52.516;13.290;2023-07-16T02:18:26;23.70;98.90
73955;DHT22;62306;52.516;13.290;2023-07-16T02:20:55;23.60;99.30
73955;DHT22;62306;52.516;13.290;2023-07-16T02:23:21;23.60;99.90
73955;DHT22;62306;52.516;13.290;2023-07-16T02:25:49;23.50;99.90
73955;DHT22;62306;52.516;13.290;2023-07-16T02:28:15;23.40;99.90
73955;DHT22;62306;52.516;13.290;2023-07-16T02:30:42;23.20;99.90
73955;DHT22;62306;52.516;13.290;2023-07-16T02:33:09;23.10;99.90
73955;DHT22;62306;52.516;13.290;2023-07-16T02:35:36;23.00;99.90
73955;DHT22;62306;52.516;13.290;2023-07-16T02:38:05;22.90;99.90
73955;DHT22;62306;52.516;13.290;2023-07-16T02:40:32;22.90;99.90
73955;DHT22;62306;52.516;13.290;2023-07-16T02:42:59;22.90;99.90
73955;DHT22;62306;52.516;13.290;2023-07-16T02:45:26;22.70;99.90
73955;DHT22;62306;52.516;13.290;2023-07-16T02:47:53;22.80;99.90
73955;DHT22;62306;52.516;13.290;2023-07-16T02:50:19;22.70;99.90
73955;DHT22;62306;52.516;13.290;2023-07-16T02:52:46;22.70;99.90
73955;DHT22;62306;52.516;13.290;2023-07-16T02:55:15;22.80;99.90
73955;DHT22;62306;52.516;13.290;2023-07-16T02:57:42;22.80;99.90
73955;DHT22;62306;52.516;13.290;2023-07-16T03:00:09;22.70;99.90
73955;DHT22;62306;52.516;13.290;2023-07-16T03:02:36;22.70;99.90
73955;DHT22;62306;52.516;13.290;2023-07-16T03:05:04;22.70;99.90
73955;DHT22;62306;52.516;13.290;2023-07-16T03:07:30;22.70;99.90
73955;DHT22;62306;52.516;13.290;2023-07-16T03:09:58;22.70;99.90
73955;DHT22;62306;52.516;13.290;2023-07-16T03:12:27;22.60;99.90
73955;DHT22;62306;52.516;13.290;2023-07-16T03:14:54;22.60;99.90
73955;DHT22;62306;52.516;13.290;2023-07-16T03:17:20;22.60;99.90
73955;DHT22;62306;52.516;13.290;2023-07-16T03:19:48;22.50;99.90
73955;DHT22;62306;52.516;13.290;2023-07-16T03:22:14;22.50;99.90
73955;DHT22;62306;52.516;13.290;2023-07-16T03:24:41;22.50;99.90
73955;DHT22;62306;52.516;13.290;2023-07-16T03:27:08;22.30;99.90
73955;DHT22;62306;52.516;13.290;2023-07-16T03:29:37;22.20;99.90
73955;DHT22;62306;52.516;13.290;2023-07-16T03:32:04;22.10;99.90
73955;DHT22;62306;52.516;13.290;2023-07-16T03:34:31;22.10;99.90
73955;DHT22;62306;52.516;13.290;2023-07-16T03:36:58;22.10;99.90
73955;DHT22;62306;52.516;13.290;2023-07-16T03:39:25;22.10;99.90
73955;DHT22;62306;52.516;13.290;2023-07-16T03:41:52;22.10;99.90
73955;DHT22;62306;52.516;13.290;2023-07-16T03:44:19;22.10;99.90
73955;DHT22;62306;52.516;13.290;2023-07-16T03:46:47;22.20;99.90
73955;DHT22;62306;52.516;13.290;2023-07-16T03:49:14;22.20;99.90
73955;DHT22;62306;52.516;13.290;2023-07-16T03:51:41;22.20;99.90
73955;DHT22;62306;52.516;13.290;2023-07-16T03:54:08;22.20;99.90
73955;DHT22;62306;52.516;13.290;2023-07-16T03:56:35;22.20;99.90
73955;DHT22;62306;52.516;13.290;2023-07-16T03:59:02;22.20;99.90
73955;DHT22;62306;52.516;13.290;2023-07-16T04:01:29;22.30;99.90
73955;DHT22;62306;52.516;13.290;2023-07-16T04:03:58;22.30;99.90
73955;DHT22;62306;52.516;13.290;2023-07-16T04:06:25;22.30;99.90
73955;DHT22;62306;52.516;13.290;2023-07-16T04:08:51;22.40;99.90
73955;DHT22;62306;52.516;13.290;2023-07-16T04:11:18;22.30;99.90
73955;DHT22;62306;52.516;13.290;2023-07-16T04:13:45;22.40;99.90
73955;DHT22;62306;52.516;13.290;2023-07-16T04:16:13;22.50;99.90
73955;DHT22;62306;52.516;13.290;2023-07-16T04:18:39;22.40;99.90
73955;DHT22;62306;52.516;13.290;2023-07-16T04:21:08;22.40;99.90
73955;DHT22;62306;52.516;13.290;2023-07-16T04:23:35;22.40;99.90
73955;DHT22;62306;52.516;13.290;2023-07-16T04:26:02;22.40;99.90
73955;DHT22;62306;52.516;13.290;2023-07-16T04:28:29;22.40;99.90
73955;DHT22;62306;52.516;13.290;2023-07-16T04:30:56;22.30;99.90
73955;DHT22;62306;52.516;13.290;2023-07-16T04:33:23;22.40;99.90
73955;DHT22;62306;52.516;13.290;2023-07-16T04:35:50;22.40;99.90
73955;DHT22;62306;52.516;13.290;2023-07-16T04:38:18;22.30;99.90
73955;DHT22;62306;52.516;13.290;2023-07-16T04:40:45;22.30;99.90
73955;DHT22;62306;52.516;13.290;2023-07-16T04:43:12;22.20;99.90
73955;DHT22;62306;52.516;13.290;2023-07-16T04:45:39;22.20;99.90
73955;DHT22;62306;52.516;13.290;2023-07-16T04:48:06;22.20;99.90
73955;DHT22;62306;52.516;13.290;2023-07-16T04:50:33;22.10;99.90
73955;DHT22;62306;52.516;13.290;2023-07-16T04:53:00;22.10;99.90
73955;DHT22;62306;52.516;13.290;2023-07-16T04:55:28;22.10;99.90
73955;DHT22;62306;52.516;13.290;2023-07-16T04:57:55;22.10;99.90
73955;DHT22;62306;52.516;13.290;2023-07-16T05:00:22;22.10;99.90
73955;DHT22;62306;52.516;13.290;2023-07-16T05:02:49;22.20;99.90
73955;DHT22;62306;52.516;13.290;2023-07-16T05:05:16;22.20;99.90
73955;DHT22;62306;52.516;13.290;2023-07-16T05:07:43;22.20;99.90
73955;DHT22;62306;52.516;13.290;2023-07-16T05:10:11;22.30;99.90
73955;DHT22;62306;52.516;13.290;2023-07-16T05:12:39;22.30;99.90
73955;DHT22;62306;52.516;13.290;2023-07-16T05:15:07;22.40;99.90
73955;DHT22;62306;52.516;13.290;2023-07-16T05:17:34;22.40;99.90
73955;DHT22;62306;52.516;13.290;2023-07-16T05:20:01;22.50;99.90
73955;DHT22;62306;52.516;13.290;2023-07-16T05:22:29;22.60;99.90
73955;DHT22;62306;52.516;13.290;2023-07-16T05:24:56;22.70;99.90
73955;DHT22;62306;52.516;13.290;2023-07-16T05:27:23;22.90;99.90
73955;DHT22;62306;52.516;13.290;2023-07-16T05:29:51;23.70;99.90
73955;DHT22;62306;52.516;13.290;2023-07-16T05:32:18;24.60;99.90
73955;DHT22;62306;52.516;13.290;2023-07-16T05:34:45;25.10;99.90
73955;DHT22;62306;52.516;13.290;2023-07-16T05:37:12;25.30;99.90
73955;DHT22;62306;52.516;13.290;2023-07-16T05:39:39;25.40;99.90
73955;DHT22;62306;52.516;13.290;2023-07-16T05:42:06;25.30;99.90
73955;DHT22;62306;52.516;13.290;2023-07-16T05:44:33;25.20;99.90
73955;DHT22;62306;52.516;13.290;2023-07-16T05:47:02;25.10;99.90
73955;DHT22;62306;52.516;13.290;2023-07-16T05:49:29;25.90;99.90
73955;DHT22;62306;52.516;13.290;2023-07-16T05:51:57;27.10;97.40
73955;DHT22;62306;52.516;13.290;2023-07-16T05:54:24;27.90;95.60
73955;DHT22;62306;52.516;13.290;2023-07-16T05:56:51;29.00;93.30
73955;DHT22;62306;52.516;13.290;2023-07-16T05:59:18;30.60;90.20
73955;DHT22;62306;52.516;13.290;2023-07-16T06:01:44;32.00;82.00
73955;DHT22;62306;52.516;13.290;2023-07-16T06:04:13;33.00;76.30
73955;DHT22;62306;52.516;13.290;2023-07-16T06:06:40;34.10;71.50
73955;DHT22;62306;52.516;13.290;2023-07-16T06:09:07;34.70;67.70
73955;DHT22;62306;52.516;13.290;2023-07-16T06:11:34;35.00;65.20
73955;DHT22;62306;52.516;13.290;2023-07-16T06:14:01;34.90;64.00
73955;DHT22;62306;52.516;13.290;2023-07-16T06:16:28;35.00;63.60
73955;DHT22;62306;52.516;13.290;2023-07-16T06:18:55;34.90;62.80
73955;DHT22;62306;52.516;13.290;2023-07-16T06:21:23;35.40;61.50
73955;DHT22;62306;52.516;13.290;2023-07-16T06:23:50;35.10;61.70
73955;DHT22;62306;52.516;13.290;2023-07-16T06:26:17;35.20;61.20
73955;DHT22;62306;52.516;13.290;2023-07-16T06:28:44;35.40;60.30
73955;DHT22;62306;52.516;13.290;2023-07-16T06:31:14;35.50;60.00
73955;DHT22;62306;52.516;13.290;2023-07-16T06:33:42;35.40;59.50
73955;DHT22;62306;52.516;13.290;2023-07-16T06:36:09;35.10;60.00
73955;DHT22;62306;52.516;13.290;2023-07-16T06:38:37;35.10;60.00
73955;DHT22;62306;52.516;13.290;2023-07-16T06:41:05;35.00;59.90
73955;DHT22;62306;52.516;13.290;2023-07-16T06:43:31;35.00;59.80
73955;DHT22;62306;52.516;13.290;2023-07-16T06:45:58;34.70;60.00
73955;DHT22;62306;52.516;13.290;2023-07-16T06:48:26;34.40;60.80
73955;DHT22;62306;52.516;13.290;2023-07-16T06:50:53;34.10;61.40
73955;DHT22;62306;52.516;13.290;2023-07-16T06:53:20;33.80;62.70
73955;DHT22;62306;52.516;13.290;2023-07-16T06:55:49;33.30;63.60
73955;DHT22;62306;52.516;13.290;2023-07-16T06:58:16;32.10;65.70
73955;DHT22;62306;52.516;13.290;2023-07-16T07:00:43;31.10;68.70
73955;DHT22;62306;52.516;13.290;2023-07-16T07:03:15;30.40;70.70
73955;DHT22;62306;52.516;13.290;2023-07-16T07:05:42;29.90;71.70
73955;DHT22;62306;52.516;13.290;2023-07-16T07:08:09;29.70;72.50
73955;DHT22;62306;52.516;13.290;2023-07-16T07:10:36;29.20;73.70
73955;DHT22;62306;52.516;13.290;2023-07-16T07:13:07;28.70;76.50
73955;DHT22;62306;52.516;13.290;2023-07-16T07:15:33;28.60;77.10
73955;DHT22;62306;52.516;13.290;2023-07-16T07:18:00;28.50;78.70
73955;DHT22;62306;52.516;13.290;2023-07-16T07:20:27;28.60;78.00
73955;DHT22;62306;52.516;13.290;2023-07-16T07:22:54;28.50;78.20
73955;DHT22;62306;52.516;13.290;2023-07-16T07:25:20;28.60;78.80
73955;DHT22;62306;52.516;13.290;2023-07-16T07:27:47;29.00;79.30
73955;DHT22;62306;52.516;13.290;2023-07-16T07:30:16;29.20;77.20
73955;DHT22;62306;52.516;13.290;2023-07-16T07:32:43;29.10;75.90
73955;DHT22;62306;52.516;13.290;2023-07-16T07:35:10;28.80;76.90
73955;DHT22;62306;52.516;13.290;2023-07-16T07:37:37;28.50;78.20
73955;DHT22;62306;52.516;13.290;2023-07-16T07:40:05;28.20;79.60
73955;DHT22;62306;52.516;13.290;2023-07-16T07:42:33;27.90;80.30
73955;DHT22;62306;52.516;13.290;2023-07-16T07:45:00;27.80;81.50
73955;DHT22;62306;52.516;13.290;2023-07-16T07:47:28;28.30;80.50
73955;DHT22;62306;52.516;13.290;2023-07-16T07:49:55;28.90;77.20
73955;DHT22;62306;52.516;13.290;2023-07-16T07:52:22;29.30;75.50
73955;DHT22;62306;52.516;13.290;2023-07-16T07:54:49;29.50;73.70
73955;DHT22;62306;52.516;13.290;2023-07-16T07:57:16;29.80;72.60
73955;DHT22;62306;52.516;13.290;2023-07-16T07:59:44;29.70;72.50
73955;DHT22;62306;52.516;13.290;2023-07-16T08:02:11;29.30;72.70
73955;DHT22;62306;52.516;13.290;2023-07-16T08:04:39;28.50;72.70
73955;DHT22;62306;52.516;13.290;2023-07-16T08:07:06;27.80;74.60
73955;DHT22;62306;52.516;13.290;2023-07-16T08:09:33;27.30;76.30
73955;DHT22;62306;52.516;13.290;2023-07-16T08:12:00;27.10;78.00
73955;DHT22;62306;52.516;13.290;2023-07-16T08:14:27;27.10;76.10
73955;DHT22;62306;52.516;13.290;2023-07-16T08:16:54;27.30;76.50
73955;DHT22;62306;52.516;13.290;2023-07-16T08:19:21;27.70;75.30
73955;DHT22;62306;52.516;13.290;2023-07-16T08:21:49;28.20;72.90
73955;DHT22;62306;52.516;13.290;2023-07-16T08:24:16;28.40;72.30
73955;DHT22;62306;52.516;13.290;2023-07-16T08:26:44;28.80;70.50
73955;DHT22;62306;52.516;13.290;2023-07-16T08:29:11;29.20;69.10
73955;DHT22;62306;52.516;13.290;2023-07-16T08:31:38;29.50;68.70
73955;DHT22;62306;52.516;13.290;2023-07-16T08:34:05;29.70;66.50
73955;DHT22;62306;52.516;13.290;2023-07-16T08:36:33;29.80;66.40
73955;DHT22;62306;52.516;13.290;2023-07-16T08:39:01;29.70;64.90
73955;DHT22;62306;52.516;13.290;2023-07-16T08:41:28;29.40;65.20
73955;DHT22;62306;52.516;13.290;2023-07-16T08:43:56;29.30;65.30
73955;DHT22;62306;52.516;13.290;2023-07-16T08:46:24;29.10;65.40
73955;DHT22;62306;52.516;13.290;2023-07-16T08:48:51;29.00;66.10
73955;DHT22;62306;52.516;13.290;2023-07-16T08:51:21;29.10;66.20
73955;DHT22;62306;52.516;13.290;2023-07-16T08:53:48;29.30;66.00
73955;DHT22;62306;52.516;13.290;2023-07-16T08:56:17;29.50;66.30
73955;DHT22;62306;52.516;13.290;2023-07-16T08:58:44;29.50;64.70
73955;DHT22;62306;52.516;13.290;2023-07-16T09:01:11;29.10;64.60
73955;DHT22;62306;52.516;13.290;2023-07-16T09:03:39;28.90;65.90
73955;DHT22;62306;52.516;13.290;2023-07-16T09:06:07;28.90;66.20
73955;DHT22;62306;52.516;13.290;2023-07-16T09:08:34;29.10;66.00
73955;DHT22;62306;52.516;13.290;2023-07-16T09:11:01;29.30;65.40
73955;DHT22;62306;52.516;13.290;2023-07-16T09:13:30;29.30;63.40
73955;DHT22;62306;52.516;13.290;2023-07-16T09:15:58;29.30;62.20
73955;DHT22;62306;52.516;13.290;2023-07-16T09:18:26;28.90;63.60
73955;DHT22;62306;52.516;13.290;2023-07-16T09:20:56;28.60;64.20
73955;DHT22;62306;52.516;13.290;2023-07-16T09:23:25;28.50;63.90
73955;DHT22;62306;52.516;13.290;2023-07-16T09:25:53;28.50;63.20
73955;DHT22;62306;52.516;13.290;2023-07-16T09:28:20;28.60;63.60
73955;DHT22;62306;52.516;13.290;2023-07-16T09:30:50;28.80;62.50
73955;DHT22;62306;52.516;13.290;2023-07-16T09:33:19;29.00;63.00
73955;DHT22;62306;52.516;13.290;2023-07-16T09:35:48;29.30;61.80
73955;DHT22;62306;52.516;13.290;2023-07-16T09:38:16;29.30;61.20
73955;DHT22;62306;52.516;13.290;2023-07-16T09:40:43;29.20;60.30
73955;DHT22;62306;52.516;13.290;2023-07-16T09:43:12;29.10;60.20
73955;DHT22;62306;52.516;13.290;2023-07-16T09:45:40;29.00;61.40
73955;DHT22;62306;52.516;13.290;2023-07-16T09:48:09;29.10;61.00
73955;DHT22;62306;52.516;13.290;2023-07-16T09:50:36;29.30;60.60
73955;DHT22;62306;52.516;13.290;2023-07-16T09:53:05;29.40;60.00
73955;DHT22;62306;52.516;13.290;2023-07-16T09:55:34;29.50;59.90
73955;DHT22;62306;52.516;13.290;2023-07-16T09:58:06;29.50;59.80
73955;DHT22;62306;52.516;13.290;2023-07-16T10:00:35;29.60;58.20
73955;DHT22;62306;52.516;13.290;2023-07-16T10:03:05;29.50;57.40
73955;DHT22;62306;52.516;13.290;2023-07-16T10:05:36;29.30;58.70
73955;DHT22;62306;52.516;13.290;2023-07-16T10:08:04;29.20;59.60
73955;DHT22;62306;52.516;13.290;2023-07-16T10:10:38;29.30;59.70
73955;DHT22;62306;52.516;13.290;2023-07-16T10:13:07;29.40;58.50
73955;DHT22;62306;52.516;13.290;2023-07-16T10:15:34;29.30;58.50
73955;DHT22;62306;52.516;13.290;2023-07-16T10:18:01;29.20;58.80
73955;DHT22;62306;52.516;13.290;2023-07-16T10:20:29;29.10;59.50
73955;DHT22;62306;52.516;13.290;2023-07-16T10:22:58;29.20;59.40
73955;DHT22;62306;52.516;13.290;2023-07-16T10:25:27;29.20;59.00
73955;DHT22;62306;52.516;13.290;2023-07-16T10:27:55;29.00;59.30
73955;DHT22;62306;52.516;13.290;2023-07-16T10:30:22;29.00;60.20
73955;DHT22;62306;52.516;13.290;2023-07-16T10:32:51;29.20;60.10
73955;DHT22;62306;52.516;13.290;2023-07-16T10:35:19;29.50;60.10
73955;DHT22;62306;52.516;13.290;2023-07-16T10:37:46;29.60;58.30
73955;DHT22;62306;52.516;13.290;2023-07-16T10:40:15;29.40;58.80
73955;DHT22;62306;52.516;13.290;2023-07-16T10:42:43;29.40;59.10
73955;DHT22;62306;52.516;13.290;2023-07-16T10:45:12;29.70;58.50
73955;DHT22;62306;52.516;13.290;2023-07-16T10:47:51;29.90;58.60
73955;DHT22;62306;52.516;13.290;2023-07-16T10:50:19;30.00;58.40
73955;DHT22;62306;52.516;13.290;2023-07-16T10:52:50;30.20;57.30
73955;DHT22;62306;52.516;13.290;2023-07-16T10:55:19;30.30;56.70
73955;DHT22;62306;52.516;13.290;2023-07-16T10:57:47;30.40;55.70
73955;DHT22;62306;52.516;13.290;2023-07-16T11:00:15;30.30;55.40
73955;DHT22;62306;52.516;13.290;2023-07-16T11:02:43;30.10;56.10
73955;DHT22;62306;52.516;13.290;2023-07-16T11:05:10;30.30;56.10
73955;DHT22;62306;52.516;13.290;2023-07-16T11:07:37;30.30;55.80
73955;DHT22;62306;52.516;13.290;2023-07-16T11:10:05;30.10;56.30
73955;DHT22;62306;52.516;13.290;2023-07-16T11:12:35;30.20;56.60
73955;DHT22;62306;52.516;13.290;2023-07-16T11:15:02;30.20;56.70
73955;DHT22;62306;52.516;13.290;2023-07-16T11:17:30;30.10;57.00
73955;DHT22;62306;52.516;13.290;2023-07-16T11:20:00;29.90;56.80
73955;DHT22;62306;52.516;13.290;2023-07-16T11:22:28;29.60;57.60
73955;DHT22;62306;52.516;13.290;2023-07-16T11:24:55;29.50;58.00
73955;DHT22;62306;52.516;13.290;2023-07-16T11:27:27;29.40;58.00
73955;DHT22;62306;52.516;13.290;2023-07-16T11:29:56;29.30;57.40
73955;DHT22;62306;52.516;13.290;2023-07-16T11:32:29;29.20;57.60
73955;DHT22;62306;52.516;13.290;2023-07-16T11:34:57;29.30;57.50
73955;DHT22;62306;52.516;13.290;2023-07-16T11:37:25;29.50;56.90
73955;DHT22;62306;52.516;13.290;2023-07-16T11:39:55;29.70;56.50
73955;DHT22;62306;52.516;13.290;2023-07-16T11:42:28;29.70;55.80
73955;DHT22;62306;52.516;13.290;2023-07-16T11:44:57;29.90;53.80
73955;DHT22;62306;52.516;13.290;2023-07-16T11:47:25;30.10;52.40
73955;DHT22;62306;52.516;13.290;2023-07-16T11:49:52;30.30;52.50
73955;DHT22;62306;52.516;13.290;2023-07-16T11:52:20;30.20;53.90
73955;DHT22;62306;52.516;13.290;2023-07-16T11:54:48;30.20;52.10
73955;DHT22;62306;52.516;13.290;2023-07-16T11:57:15;30.10;52.90
73955;DHT22;62306;52.516;13.290;2023-07-16T11:59:42;29.90;53.00
73955;DHT22;62306;52.516;13.290;2023-07-16T12:02:10;30.00;52.70
73955;DHT22;62306;52.516;13.290;2023-07-16T12:04:38;30.20;51.10
73955;DHT22;62306;52.516;13.290;2023-07-16T12:07:05;30.10;50.30
73955;DHT22;62306;52.516;13.290;2023-07-16T12:09:32;29.90;50.00
73955;DHT22;62306;52.516;13.290;2023-07-16T12:11:59;29.80;48.20
73955;DHT22;62306;52.516;13.290;2023-07-16T12:14:26;29.70;49.10
73955;DHT22;62306;52.516;13.290;2023-07-16T12:16:54;29.80;48.10
73955;DHT22;62306;52.516;13.290;2023-07-16T12:19:24;29.70;47.50
73955;DHT22;62306;52.516;13.290;2023-07-16T12:21:51;30.00;47.00
73955;DHT22;62306;52.516;13.290;2023-07-16T12:24:18;30.20;47.20
73955;DHT22;62306;52.516;13.290;2023-07-16T12:26:45;30.20;47.10
73955;DHT22;62306;52.516;13.290;2023-07-16T12:29:12;30.30;44.90
73955;DHT22;62306;52.516;13.290;2023-07-16T12:31:39;30.20;44.10
73955;DHT22;62306;52.516;13.290;2023-07-16T12:34:06;30.20;44.70
73955;DHT22;62306;52.516;13.290;2023-07-16T12:36:34;30.20;44.30
73955;DHT22;62306;52.516;13.290;2023-07-16T12:39:01;30.10;43.70
73955;DHT22;62306;52.516;13.290;2023-07-16T12:41:28;30.00;44.00
73955;DHT22;62306;52.516;13.290;2023-07-16T12:43:55;30.10;43.70
73955;DHT22;62306;52.516;13.290;2023-07-16T12:46:22;30.00;44.10
73955;DHT22;62306;52.516;13.290;2023-07-16T12:48:49;29.80;44.00
73955;DHT22;62306;52.516;13.290;2023-07-16T12:51:16;29.90;44.80
73955;DHT22;62306;52.516;13.290;2023-07-16T12:53:44;30.00;44.30
73955;DHT22;62306;52.516;13.290;2023-07-16T12:56:12;30.10;44.30
73955;DHT22;62306;52.516;13.290;2023-07-16T12:58:39;30.20;44.50
73955;DHT22;62306;52.516;13.290;2023-07-16T13:01:06;30.20;44.30
73955;DHT22;62306;52.516;13.290;2023-07-16T13:03:33;30.30;44.70
73955;DHT22;62306;52.516;13.290;2023-07-16T13:06:00;30.30;44.90
73955;DHT22;62306;52.516;13.290;2023-07-16T13:08:29;30.40;44.80
73955;DHT22;62306;52.516;13.290;2023-07-16T13:10:57;30.30;45.10
73955;DHT22;62306;52.516;13.290;2023-07-16T13:13:25;30.20;44.60
73955;DHT22;62306;52.516;13.290;2023-07-16T13:15:52;30.20;45.00
73955;DHT22;62306;52.516;13.290;2023-07-16T13:18:19;30.30;44.90
73955;DHT22;62306;52.516;13.290;2023-07-16T13:20:47;30.30;44.90
73955;DHT22;62306;52.516;13.290;2023-07-16T13:23:13;30.30;45.70
73955;DHT22;62306;52.516;13.290;2023-07-16T13:25:40;30.30;45.30
73955;DHT22;62306;52.516;13.290;2023-07-16T13:28:09;30.10;45.60
73955;DHT22;62306;52.516;13.290;2023-07-16T13:30:36;29.80;45.30
73955;DHT22;62306;52.516;13.290;2023-07-16T13:33:03;29.80;45.60
73955;DHT22;62306;52.516;13.290;2023-07-16T13:35:30;29.80;45.30
73955;DHT22;62306;52.516;13.290;2023-07-16T13:37:57;30.00;45.00
73955;DHT22;62306;52.516;13.290;2023-07-16T13:40:24;29.70;45.00
73955;DHT22;62306;52.516;13.290;2023-07-16T13:42:51;29.60;44.70
73955;DHT22;62306;52.516;13.290;2023-07-16T13:45:20;29.50;45.10
73955;DHT22;62306;52.516;13.290;2023-07-16T13:47:47;29.60;45.60
73955;DHT22;62306;52.516;13.290;2023-07-16T13:50:14;29.80;44.70
73955;DHT22;62306;52.516;13.290;2023-07-16T13:52:41;29.70;45.50
73955;DHT22;62306;52.516;13.290;2023-07-16T13:55:08;29.90;45.40
73955;DHT22;62306;52.516;13.290;2023-07-16T13:57:35;29.90;45.50
73955;DHT22;62306;52.516;13.290;2023-07-16T14:00:03;29.90;45.30
73955;DHT22;62306;52.516;13.290;2023-07-16T14:02:32;29.90;44.00
73955;DHT22;62306;52.516;13.290;2023-07-16T14:04:59;30.00;44.10
73955;DHT22;62306;52.516;13.290;2023-07-16T14:07:25;30.20;43.40
73955;DHT22;62306;52.516;13.290;2023-07-16T14:09:52;30.30;42.80
73955;DHT22;62306;52.516;13.290;2023-07-16T14:12:19;30.20;43.00
73955;DHT22;62306;52.516;13.290;2023-07-16T14:14:46;30.10;43.90
73955;DHT22;62306;52.516;13.290;2023-07-16T14:17:13;30.00;43.50
73955;DHT22;62306;52.516;13.290;2023-07-16T14:19:42;29.70;43.20
73955;DHT22;62306;52.516;13.290;2023-07-16T14:22:09;29.40;44.10
73955;DHT22;62306;52.516;13.290;2023-07-16T14:24:37;29.20;43.50
73955;DHT22;62306;52.516;13.290;2023-07-16T14:27:06;29.20;43.20
73955;DHT22;62306;52.516;13.290;2023-07-16T14:29:33;29.50;43.50
73955;DHT22;62306;52.516;13.290;2023-07-16T14:32:00;29.60;43.70
73955;DHT22;62306;52.516;13.290;2023-07-16T14:34:27;29.40;43.60
73955;DHT22;62306;52.516;13.290;2023-07-16T14:36:56;29.40;43.60
73955;DHT22;62306;52.516;13.290;2023-07-16T14:39:23;29.30;44.20
73955;DHT22;62306;52.516;13.290;2023-07-16T14:41:50;29.20;43.70
73955;DHT22;62306;52.516;13.290;2023-07-16T14:44:17;29.00;43.90
73955;DHT22;62306;52.516;13.290;2023-07-16T14:46:44;29.10;43.90
73955;DHT22;62306;52.516;13.290;2023-07-16T14:49:11;29.10;43.60
73955;DHT22;62306;52.516;13.290;2023-07-16T14:51:38;29.30;43.20
73955;DHT22;62306;52.516;13.290;2023-07-16T14:54:08;29.30;43.40
73955;DHT22;62306;52.516;13.290;2023-07-16T14:56:35;29.20;43.30
73955;DHT22;62306;52.516;13.290;2023-07-16T14:59:02;29.20;43.30
73955;DHT22;62306;52.516;13.290;2023-07-16T15:01:30;29.20;43.40
73955;DHT22;62306;52.516;13.290;2023-07-16T15:03:57;29.30;42.60
73955;DHT22;62306;52.516;13.290;2023-07-16T15:06:24;29.30;42.80
73955;DHT22;62306;52.516;13.290;2023-07-16T15:08:53;29.10;43.20
73955;DHT22;62306;52.516;13.290;2023-07-16T15:11:21;29.00;43.70
73955;DHT22;62306;52.516;13.290;2023-07-16T15:13:49;28.90;43.00
73955;DHT22;62306;52.516;13.290;2023-07-16T15:16:16;28.90;43.30
73955;DHT22;62306;52.516;13.290;2023-07-16T15:18:42;28.90;43.10